Point Lookout, New York
Current Conditions -  °F | °C
As of 8:51 AM on Thursday 27 Nov 2014 (Local Time) from KJFK Reporting Station
Broken Clouds Broken Clouds  
Wind Chill: 31°   Ceiling: 1700
Heat Index: 38°   Visibility: 10mi
Dew Point: 31°   Wind: 9mph
Humidity: 76%   Direction: 320°NW
Pressure: 30"   Gusts: NA
Location:  40.59°N, 73.58°W
Report Text: KJFK 271351Z 32008KT 10SM BKN017 BKN040 BKN060 03/M01 A3000 RMK AO2 SLP159 T00331006 $
Loading
Personal Weather Stations






























Interactive Weather Map New forecast layout! Learn more

10-Day Weather Forecast

Advertisements
Track Severe Weather on mobile